Time,TemperatureF,DewpointF,PressureIn,WindDirection,WindDirectionDegrees,WindSpeedMPH,WindSpeedGustMPH,Humidity,HourlyPrecipIn,Conditions,Clouds,dailyrainin,SoftwareType,DateUTC
2013-06-18 00:01:00,61.6,58.3,29.95,NNE,31,2.0,3.0,89,0.00,,,0.00,Wunderground v.1.15,2013-06-18 04:01:00,
2013-06-18 00:02:00,61.6,58.3,29.95,NE,45,2.0,4.0,89,0.00,,,0.00,Wunderground v.1.15,2013-06-18 04:02:00,
2013-06-18 00:04:00,61.5,58.2,29.95,NE,52,2.0,4.0,89,0.00,,,0.00,Wunderground v.1.15,2013-06-18 04:04:00,
2013-06-18 00:06:00,61.4,58.1,29.95,North,355,2.0,6.0,89,0.00,,,0.00,Wunderground v.1.15,2013-06-18 04:06:00,
2013-06-18 00:08:00,61.3,58.0,29.96,North,5,2.0,6.0,89,0.00,,,0.00,Wunderground v.1.15,2013-06-18 04:08:00,
2013-06-18 00:14:00,61.1,57.8,29.96,North,5,1.0,3.0,89,0.00,,,0.00,Wunderground v.1.15,2013-06-18 04:14:00,
2013-06-18 00:19:00,61.1,57.8,29.96,North,5,0.0,0.0,89,0.00,,,0.00,Wunderground v.1.15,2013-06-18 04:19:00,
2013-06-18 00:24:00,61.0,58.0,29.97,North,5,0.0,1.0,90,0.00,,,0.00,Wunderground v.1.15,2013-06-18 04:24:00,
2013-06-18 00:29:00,60.9,57.9,29.97,North,5,0.0,0.0,90,0.00,,,0.00,Wunderground v.1.15,2013-06-18 04:29:00,
2013-06-18 00:35:00,60.9,58.3,29.95,North,5,0.0,0.0,91,0.00,,,0.00,Wunderground v.1.15,2013-06-18 04:35:00,
2013-06-18 00:40:00,60.9,58.3,29.94,North,360,0.0,1.0,91,0.00,,,0.00,Wunderground v.1.15,2013-06-18 04:40:00,
2013-06-18 00:46:00,60.9,58.3,29.92,East,97,0.0,1.0,91,0.00,,,0.01,Wunderground v.1.15,2013-06-18 04:46:00,
2013-06-18 00:51:00,60.8,58.2,29.92,SE,127,1.0,1.0,91,0.00,,,0.01,Wunderground v.1.15,2013-06-18 04:51:00,
2013-06-18 00:56:00,60.7,58.4,29.91,SE,127,1.0,1.0,92,0.10,,,0.02,Wunderground v.1.15,2013-06-18 04:56:00,
2013-06-18 01:01:00,60.5,58.2,29.92,ENE,59,1.0,6.0,92,0.07,,,0.02,Wunderground v.1.15,2013-06-18 05:01:00,
2013-06-18 01:07:00,60.4,58.1,29.92,NE,56,2.0,6.0,92,0.04,,,0.02,Wunderground v.1.15,2013-06-18 05:07:00,
2013-06-18 01:13:00,60.3,58.0,29.92,ESE,115,1.0,4.0,92,0.00,,,0.02,Wunderground v.1.15,2013-06-18 05:13:00,
2013-06-18 01:18:00,60.1,57.8,29.92,SSE,151,1.0,5.0,92,0.00,,,0.02,Wunderground v.1.15,2013-06-18 05:18:00,
2013-06-18 01:23:00,60.0,58.0,29.92,SSE,150,1.0,2.0,93,0.00,,,0.02,Wunderground v.1.15,2013-06-18 05:23:00,
2013-06-18 01:29:00,59.9,57.9,29.92,SSE,160,1.0,1.0,93,0.00,,,0.02,Wunderground v.1.15,2013-06-18 05:29:00,
2013-06-18 01:34:00,59.9,57.9,29.92,SSE,160,1.0,1.0,93,0.00,,,0.02,Wunderground v.1.15,2013-06-18 05:34:00,
2013-06-18 01:40:00,59.9,57.9,29.92,SSE,159,0.0,1.0,93,0.00,,,0.02,Wunderground v.1.15,2013-06-18 05:40:00,
2013-06-18 01:45:00,59.8,57.8,29.92,SSE,158,0.0,2.0,93,0.00,,,0.02,Wunderground v.1.15,2013-06-18 05:45:00,
2013-06-18 01:51:00,59.6,57.6,29.92,SSE,158,0.0,2.0,93,0.00,,,0.02,Wunderground v.1.15,2013-06-18 05:51:00,
2013-06-18 01:57:00,59.6,57.6,29.92,SSE,158,1.0,2.0,93,0.00,,,0.02,Wunderground v.1.15,2013-06-18 05:57:00,
2013-06-18 02:03:00,59.5,57.5,29.92,SSE,158,0.0,1.0,93,0.00,,,0.02,Wunderground v.1.15,2013-06-18 06:03:00,
2013-06-18 02:08:00,59.4,57.4,29.92,ESE,106,0.0,3.0,93,0.00,,,0.02,Wunderground v.1.15,2013-06-18 06:08:00,
2013-06-18 02:13:00,59.0,57.0,29.93,ENE,74,1.0,3.0,93,0.00,,,0.02,Wunderground v.1.15,2013-06-18 06:13:00,
2013-06-18 02:18:00,59.0,57.0,29.92,NE,53,2.0,6.0,93,0.00,,,0.02,Wunderground v.1.15,2013-06-18 06:18:00,
2013-06-18 02:23:00,58.5,56.2,29.92,NE,41,2.0,4.0,92,0.00,,,0.02,Wunderground v.1.15,2013-06-18 06:23:00,
2013-06-18 02:29:00,58.1,55.8,29.93,NE,49,1.0,1.0,92,0.00,,,0.02,Wunderground v.1.15,2013-06-18 06:29:00,
2013-06-18 02:35:00,57.7,55.4,29.93,NE,49,1.0,4.0,92,0.00,,,0.02,Wunderground v.1.15,2013-06-18 06:35:00,
2013-06-18 02:40:00,57.3,55.0,29.93,NE,55,1.0,1.0,92,0.00,,,0.02,Wunderground v.1.15,2013-06-18 06:40:00,
2013-06-18 02:45:00,57.1,54.8,29.93,NE,55,1.0,1.0,92,0.00,,,0.02,Wunderground v.1.15,2013-06-18 06:45:00,
2013-06-18 02:50:00,56.9,54.6,29.93,NE,55,0.0,1.0,92,0.00,,,0.02,Wunderground v.1.15,2013-06-18 06:50:00,
2013-06-18 02:56:00,56.8,54.5,29.93,ENE,57,1.0,2.0,92,0.00,,,0.02,Wunderground v.1.15,2013-06-18 06:56:00,
2013-06-18 03:01:00,56.6,54.6,29.93,ENE,57,1.0,1.0,93,0.00,,,0.02,Wunderground v.1.15,2013-06-18 07:01:00,
2013-06-18 03:07:00,56.4,54.4,29.93,NE,52,1.0,3.0,93,0.00,,,0.02,Wunderground v.1.15,2013-06-18 07:07:00,
2013-06-18 03:12:00,56.2,54.2,29.93,NE,53,1.0,1.0,93,0.00,,,0.02,Wunderground v.1.15,2013-06-18 07:12:00,
2013-06-18 03:18:00,56.0,54.0,29.93,NE,52,0.0,3.0,93,0.00,,,0.02,Wunderground v.1.15,2013-06-18 07:18:00,
2013-06-18 03:24:00,55.9,53.9,29.93,NE,49,1.0,4.0,93,0.00,,,0.02,Wunderground v.1.15,2013-06-18 07:24:00,
2013-06-18 03:29:00,55.7,53.7,29.93,NE,54,1.0,1.0,93,0.00,,,0.02,Wunderground v.1.15,2013-06-18 07:29:00,
2013-06-18 03:34:00,55.6,53.6,29.93,NE,54,1.0,2.0,93,0.00,,,0.02,Wunderground v.1.15,2013-06-18 07:34:00,
2013-06-18 03:39:00,55.5,53.5,29.94,NE,54,0.0,0.0,93,0.00,,,0.02,Wunderground v.1.15,2013-06-18 07:39:00,
2013-06-18 03:45:00,55.3,53.3,29.93,NE,54,0.0,0.0,93,0.00,,,0.02,Wunderground v.1.15,2013-06-18 07:45:00,
2013-06-18 03:50:00,55.2,53.2,29.94,NE,54,1.0,1.0,93,0.00,,,0.02,Wunderground v.1.15,2013-06-18 07:50:00,
2013-06-18 03:55:00,55.1,53.1,29.94,NE,54,1.0,1.0,93,0.00,,,0.02,Wunderground v.1.15,2013-06-18 07:55:00,
2013-06-18 04:01:00,55.0,53.0,29.94,NE,54,0.0,1.0,93,0.00,,,0.02,Wunderground v.1.15,2013-06-18 08:01:00,
2013-06-18 04:08:00,54.8,52.8,29.94,NE,50,1.0,2.0,93,0.00,,,0.02,Wunderground v.1.15,2013-06-18 08:08:00,
2013-06-18 04:13:00,54.6,52.6,29.94,NE,50,0.0,2.0,93,0.00,,,0.02,Wunderground v.1.15,2013-06-18 08:13:00,
2013-06-18 04:19:00,54.5,52.5,29.95,NE,51,0.0,0.0,93,0.00,,,0.02,Wunderground v.1.15,2013-06-18 08:19:00,
2013-06-18 04:25:00,54.4,52.4,29.95,NE,51,0.0,0.0,93,0.00,,,0.02,Wunderground v.1.15,2013-06-18 08:25:00,
2013-06-18 04:30:00,54.4,52.4,29.95,NE,51,0.0,0.0,93,0.00,,,0.02,Wunderground v.1.15,2013-06-18 08:30:00,
2013-06-18 04:36:00,54.2,52.2,29.95,NE,51,0.0,3.0,93,0.00,,,0.02,Wunderground v.1.15,2013-06-18 08:36:00,
2013-06-18 04:41:00,54.2,52.5,29.95,NE,49,1.0,1.0,94,0.00,,,0.02,Wunderground v.1.15,2013-06-18 08:41:00,
2013-06-18 04:47:00,54.1,52.4,29.95,NE,49,0.0,1.0,94,0.00,,,0.02,Wunderground v.1.15,2013-06-18 08:47:00,
2013-06-18 04:52:00,53.9,52.2,29.95,NE,49,1.0,1.0,94,0.00,,,0.02,Wunderground v.1.15,2013-06-18 08:52:00,
2013-06-18 04:58:00,53.8,51.8,29.95,NE,48,1.0,2.0,93,0.00,,,0.02,Wunderground v.1.15,2013-06-18 08:58:00,
2013-06-18 05:03:00,53.7,51.7,29.95,NE,48,1.0,1.0,93,0.00,,,0.02,Wunderground v.1.15,2013-06-18 09:03:00,
2013-06-18 05:08:00,53.6,51.6,29.95,ENE,73,1.0,2.0,93,0.00,,,0.02,Wunderground v.1.15,2013-06-18 09:08:00,
2013-06-18 05:14:00,53.5,51.5,29.95,ENE,74,1.0,1.0,93,0.00,,,0.02,Wunderground v.1.15,2013-06-18 09:14:00,
2013-06-18 05:19:00,53.3,51.3,29.95,ENE,72,0.0,1.0,93,0.00,,,0.02,Wunderground v.1.15,2013-06-18 09:19:00,
2013-06-18 05:24:00,53.2,51.2,29.96,ENE,72,0.0,2.0,93,0.00,,,0.02,Wunderground v.1.15,2013-06-18 09:24:00,
2013-06-18 05:30:00,53.1,51.1,29.96,ENE,74,0.0,0.0,93,0.00,,,0.02,Wunderground v.1.15,2013-06-18 09:30:00,
2013-06-18 05:35:00,53.0,51.0,29.96,ENE,74,0.0,0.0,93,0.00,,,0.02,Wunderground v.1.15,2013-06-18 09:35:00,
2013-06-18 05:40:00,53.0,51.0,29.96,ENE,73,0.0,0.0,93,0.00,,,0.02,Wunderground v.1.15,2013-06-18 09:40:00,
2013-06-18 05:46:00,52.9,50.9,29.96,ENE,72,1.0,4.0,93,0.00,,,0.02,Wunderground v.1.15,2013-06-18 09:46:00,
2013-06-18 05:51:00,52.8,50.8,29.96,ENE,71,1.0,2.0,93,0.00,,,0.02,Wunderground v.1.15,2013-06-18 09:51:00,
2013-06-18 05:56:00,52.8,50.8,29.97,NE,52,1.0,2.0,93,0.00,,,0.02,Wunderground v.1.15,2013-06-18 09:56:00,
2013-06-18 06:02:00,52.8,50.8,29.97,NE,52,1.0,4.0,93,0.00,,,0.02,Wunderground v.1.15,2013-06-18 10:02:00,
2013-06-18 06:08:00,52.8,50.8,29.97,ENE,65,2.0,4.0,93,0.00,,,0.02,Wunderground v.1.15,2013-06-18 10:08:00,
2013-06-18 06:14:00,52.8,50.8,29.97,NE,49,2.0,3.0,93,0.00,,,0.02,Wunderground v.1.15,2013-06-18 10:14:00,
2013-06-18 06:19:00,52.7,50.4,29.97,ENE,57,2.0,2.0,92,0.00,,,0.02,Wunderground v.1.15,2013-06-18 10:19:00,
2013-06-18 06:25:00,52.7,50.4,29.97,NE,51,2.0,4.0,92,0.00,,,0.02,Wunderground v.1.15,2013-06-18 10:25:00,
2013-06-18 06:30:00,52.7,50.4,29.98,ENE,72,2.0,5.0,92,0.00,,,0.02,Wunderground v.1.15,2013-06-18 10:30:00,
2013-06-18 06:36:00,52.7,50.4,29.98,ENE,59,2.0,5.0,92,0.00,,,0.02,Wunderground v.1.15,2013-06-18 10:36:00,
2013-06-18 06:41:00,52.7,50.4,29.98,ENE,57,2.0,4.0,92,0.00,,,0.02,Wunderground v.1.15,2013-06-18 10:41:00,
2013-06-18 06:47:00,52.7,50.4,29.98,NE,49,1.0,4.0,92,0.00,,,0.02,Wunderground v.1.15,2013-06-18 10:47:00,
2013-06-18 06:52:00,52.8,50.5,29.98,ENE,74,2.0,3.0,92,0.00,,,0.02,Wunderground v.1.15,2013-06-18 10:52:00,
2013-06-18 06:58:00,52.9,50.6,29.99,ENE,75,1.0,3.0,92,0.00,,,0.02,Wunderground v.1.15,2013-06-18 10:58:00,
2013-06-18 07:03:00,53.0,50.4,29.99,NE,50,2.0,5.0,91,0.00,,,0.02,Wunderground v.1.15,2013-06-18 11:03:00,
2013-06-18 07:09:00,53.2,50.6,29.99,NE,42,3.0,4.0,91,0.00,,,0.02,Wunderground v.1.15,2013-06-18 11:09:00,
2013-06-18 07:14:00,53.3,50.4,29.99,NE,46,2.0,5.0,90,0.00,,,0.02,Wunderground v.1.15,2013-06-18 11:14:00,
2013-06-18 07:20:00,53.5,50.6,29.99,NE,47,2.0,2.0,90,0.00,,,0.02,Wunderground v.1.15,2013-06-18 11:20:00,
2013-06-18 07:25:00,53.6,50.7,29.99,East,92,2.0,4.0,90,0.00,,,0.02,Wunderground v.1.15,2013-06-18 11:25:00,
2013-06-18 07:30:00,53.8,50.9,29.99,ENE,57,2.0,5.0,90,0.00,,,0.02,Wunderground v.1.15,2013-06-18 11:30:00,
2013-06-18 07:35:00,53.9,50.7,29.99,ENE,66,2.0,5.0,89,0.00,,,0.02,Wunderground v.1.15,2013-06-18 11:35:00,
2013-06-18 07:41:00,54.1,50.9,29.99,ENE,57,1.0,2.0,89,0.00,,,0.02,Wunderground v.1.15,2013-06-18 11:41:00,
2013-06-18 07:46:00,54.3,51.1,29.99,ENE,63,1.0,2.0,89,0.00,,,0.02,Wunderground v.1.15,2013-06-18 11:46:00,
2013-06-18 07:51:00,54.5,51.3,29.99,ENE,74,1.0,3.0,89,0.00,,,0.02,Wunderground v.1.15,2013-06-18 11:51:00,
2013-06-18 07:57:00,54.7,51.2,30.00,ENE,78,2.0,4.0,88,0.00,,,0.02,Wunderground v.1.15,2013-06-18 11:57:00,
2013-06-18 08:03:00,55.0,51.2,30.00,NE,50,2.0,5.0,87,0.00,,,0.02,Wunderground v.1.15,2013-06-18 12:03:00,
2013-06-18 08:08:00,55.2,51.1,30.00,ENE,63,2.0,5.0,86,0.00,,,0.02,Wunderground v.1.15,2013-06-18 12:08:00,
2013-06-18 08:14:00,55.5,51.4,30.00,ENE,63,2.0,6.0,86,0.00,,,0.02,Wunderground v.1.15,2013-06-18 12:14:00,
2013-06-18 08:20:00,55.9,51.8,30.00,NE,44,2.0,5.0,86,0.00,,,0.02,Wunderground v.1.15,2013-06-18 12:20:00,
2013-06-18 08:25:00,56.1,51.7,30.00,NNE,28,1.0,5.0,85,0.00,,,0.02,Wunderground v.1.15,2013-06-18 12:25:00,
2013-06-18 08:31:00,56.5,51.7,30.00,NE,41,2.0,3.0,84,0.00,,,0.02,Wunderground v.1.15,2013-06-18 12:31:00,
2013-06-18 08:37:00,56.9,51.8,30.00,East,80,2.0,4.0,83,0.00,,,0.02,Wunderground v.1.15,2013-06-18 12:37:00,
2013-06-18 08:42:00,57.2,51.8,30.00,SE,128,2.0,4.0,82,0.00,,,0.02,Wunderground v.1.15,2013-06-18 12:42:00,
2013-06-18 08:48:00,57.7,52.2,30.00,ENE,73,2.0,5.0,82,0.00,,,0.02,Wunderground v.1.15,2013-06-18 12:48:00,
2013-06-18 08:53:00,58.3,52.5,30.00,ENE,60,2.0,4.0,81,0.00,,,0.02,Wunderground v.1.15,2013-06-18 12:53:00,
2013-06-18 08:59:00,59.0,52.8,30.01,SSE,165,3.0,3.0,80,0.00,,,0.02,Wunderground v.1.15,2013-06-18 12:59:00,
2013-06-18 09:04:00,59.0,52.5,30.01,ENE,64,3.0,3.0,79,0.00,,,0.02,Wunderground v.1.15,2013-06-18 13:04:00,
2013-06-18 09:10:00,59.3,52.4,30.01,NE,56,2.0,5.0,78,0.00,,,0.02,Wunderground v.1.15,2013-06-18 13:10:00,
2013-06-18 09:15:00,59.5,53.0,30.02,ENE,61,2.0,5.0,79,0.00,,,0.02,Wunderground v.1.15,2013-06-18 13:15:00,
2013-06-18 09:21:00,59.9,52.7,30.01,NE,51,2.0,5.0,77,0.00,,,0.02,Wunderground v.1.15,2013-06-18 13:21:00,
2013-06-18 09:26:00,59.8,52.6,30.02,NE,37,2.0,5.0,77,0.00,,,0.02,Wunderground v.1.15,2013-06-18 13:26:00,
2013-06-18 09:32:00,59.4,52.5,30.02,NE,48,2.0,6.0,78,0.00,,,0.02,Wunderground v.1.15,2013-06-18 13:32:00,
2013-06-18 09:38:00,59.7,53.2,30.03,ENE,71,2.0,7.0,79,0.00,,,0.02,Wunderground v.1.15,2013-06-18 13:38:00,
2013-06-18 09:43:00,60.4,53.2,30.02,NE,51,3.0,5.0,77,0.00,,,0.02,Wunderground v.1.15,2013-06-18 13:43:00,
2013-06-18 09:49:00,61.1,53.5,30.03,ENE,63,4.0,4.0,76,0.00,,,0.02,Wunderground v.1.15,2013-06-18 13:49:00,
2013-06-18 09:54:00,61.5,53.5,30.03,NE,40,4.0,9.0,75,0.00,,,0.02,Wunderground v.1.15,2013-06-18 13:54:00,
2013-06-18 09:59:00,61.6,53.2,30.03,ESE,115,4.0,4.0,74,0.00,,,0.02,Wunderground v.1.15,2013-06-18 13:59:00,
2013-06-18 10:04:00,61.9,54.6,30.03,ENE,68,2.0,4.0,77,0.00,,,0.02,Wunderground v.1.15,2013-06-18 14:04:00,
2013-06-18 10:10:00,62.1,53.7,30.03,East,80,1.0,2.0,74,0.00,,,0.02,Wunderground v.1.15,2013-06-18 14:10:00,
2013-06-18 10:15:00,62.0,53.6,30.03,ENE,60,3.0,5.0,74,0.00,,,0.02,Wunderground v.1.15,2013-06-18 14:15:00,
2013-06-18 10:21:00,62.5,54.5,30.03,NE,52,3.0,3.0,75,0.00,,,0.02,Wunderground v.1.15,2013-06-18 14:21:00,
2013-06-18 10:26:00,63.2,54.8,30.03,ESE,118,1.0,6.0,74,0.00,,,0.02,Wunderground v.1.15,2013-06-18 14:26:00,
2013-06-18 10:31:00,63.6,54.0,30.03,ENE,78,2.0,3.0,71,0.00,,,0.02,Wunderground v.1.15,2013-06-18 14:31:00,
2013-06-18 10:36:00,63.0,53.4,30.03,NE,35,4.0,11.0,71,0.00,,,0.02,Wunderground v.1.15,2013-06-18 14:36:00,
2013-06-18 10:42:00,62.6,53.4,30.03,ENE,74,3.0,4.0,72,0.00,,,0.02,Wunderground v.1.15,2013-06-18 14:42:00,
2013-06-18 10:48:00,62.8,53.6,30.03,ENE,73,3.0,6.0,72,0.00,,,0.02,Wunderground v.1.15,2013-06-18 14:48:00,
2013-06-18 10:53:00,63.2,53.6,30.03,ENE,72,4.0,6.0,71,0.00,,,0.02,Wunderground v.1.15,2013-06-18 14:53:00,
2013-06-18 10:58:00,63.7,54.5,30.03,SSW,192,3.0,6.0,72,0.00,,,0.02,Wunderground v.1.15,2013-06-18 14:58:00,
2013-06-18 11:03:00,64.3,54.3,30.03,East,81,2.0,5.0,70,0.00,,,0.02,Wunderground v.1.15,2013-06-18 15:03:00,
2013-06-18 11:09:00,64.8,53.6,30.03,SE,130,2.0,2.0,67,0.00,,,0.02,Wunderground v.1.15,2013-06-18 15:09:00,
2013-06-18 11:14:00,64.8,54.0,30.04,ENE,71,3.0,5.0,68,0.00,,,0.02,Wunderground v.1.15,2013-06-18 15:14:00,
2013-06-18 11:20:00,65.0,54.2,30.03,ENE,68,3.0,4.0,68,0.00,,,0.02,Wunderground v.1.15,2013-06-18 15:20:00,
2013-06-18 11:25:00,64.9,54.1,30.03,NE,37,3.0,9.0,68,0.00,,,0.02,Wunderground v.1.15,2013-06-18 15:25:00,
2013-06-18 11:30:00,65.2,54.4,30.03,East,79,4.0,5.0,68,0.00,,,0.02,Wunderground v.1.15,2013-06-18 15:30:00,
2013-06-18 11:35:00,65.4,54.2,30.03,East,82,3.0,6.0,67,0.00,,,0.02,Wunderground v.1.15,2013-06-18 15:35:00,
2013-06-18 11:41:00,65.4,53.3,30.03,NE,45,4.0,8.0,65,0.00,,,0.02,Wunderground v.1.15,2013-06-18 15:41:00,
2013-06-18 11:46:00,65.4,54.6,30.03,NNE,27,4.0,8.0,68,0.00,,,0.02,Wunderground v.1.15,2013-06-18 15:46:00,
2013-06-18 11:52:00,65.7,53.6,30.03,NNE,25,4.0,6.0,65,0.00,,,0.02,Wunderground v.1.15,2013-06-18 15:52:00,
2013-06-18 11:58:00,65.9,54.6,30.03,ENE,57,5.0,7.0,67,0.00,,,0.02,Wunderground v.1.15,2013-06-18 15:58:00,
2013-06-18 12:04:00,65.8,53.7,30.03,East,87,4.0,6.0,65,0.00,,,0.02,Wunderground v.1.15,2013-06-18 16:04:00,
2013-06-18 12:10:00,66.2,54.5,30.03,SSE,167,3.0,5.0,66,0.00,,,0.02,Wunderground v.1.15,2013-06-18 16:10:00,
2013-06-18 12:15:00,66.5,54.4,30.03,ENE,65,3.0,8.0,65,0.00,,,0.02,Wunderground v.1.15,2013-06-18 16:15:00,
2013-06-18 12:21:00,66.6,54.9,30.03,ENE,67,3.0,3.0,66,0.00,,,0.02,Wunderground v.1.15,2013-06-18 16:21:00,
2013-06-18 12:27:00,66.7,54.1,30.03,ENE,59,4.0,6.0,64,0.00,,,0.02,Wunderground v.1.15,2013-06-18 16:27:00,
2013-06-18 12:32:00,66.8,52.9,30.03,NE,34,5.0,13.0,61,0.00,,,0.02,Wunderground v.1.15,2013-06-18 16:32:00,
2013-06-18 12:38:00,66.8,54.2,30.04,ENE,66,4.0,13.0,64,0.00,,,0.02,Wunderground v.1.15,2013-06-18 16:38:00,
2013-06-18 12:43:00,66.8,53.4,30.03,NE,56,4.0,5.0,62,0.00,,,0.02,Wunderground v.1.15,2013-06-18 16:43:00,
2013-06-18 12:49:00,67.1,54.9,30.03,NNE,30,4.0,4.0,65,0.00,,,0.02,Wunderground v.1.15,2013-06-18 16:49:00,
2013-06-18 12:55:00,67.6,54.6,30.03,ENE,65,2.0,6.0,63,0.00,,,0.02,Wunderground v.1.15,2013-06-18 16:55:00,
2013-06-18 13:00:00,67.7,55.5,30.03,NNE,19,3.0,6.0,65,0.00,,,0.02,Wunderground v.1.15,2013-06-18 17:00:00,
2013-06-18 13:06:00,67.8,54.3,30.03,ESE,109,4.0,6.0,62,0.00,,,0.02,Wunderground v.1.15,2013-06-18 17:06:00,
2013-06-18 13:11:00,68.1,54.1,30.02,SE,134,3.0,8.0,61,0.00,,,0.02,Wunderground v.1.15,2013-06-18 17:11:00,
2013-06-18 13:16:00,68.0,54.5,30.02,ENE,65,3.0,8.0,62,0.00,,,0.02,Wunderground v.1.15,2013-06-18 17:16:00,
2013-06-18 13:22:00,68.0,54.0,30.03,ESE,104,3.0,5.0,61,0.00,,,0.02,Wunderground v.1.15,2013-06-18 17:22:00,
2013-06-18 13:28:00,68.0,54.0,30.02,ENE,71,3.0,9.0,61,0.00,,,0.02,Wunderground v.1.15,2013-06-18 17:28:00,
2013-06-18 13:34:00,68.2,54.2,30.02,SE,132,3.0,6.0,61,0.00,,,0.02,Wunderground v.1.15,2013-06-18 17:34:00,
2013-06-18 13:39:00,68.4,53.5,30.02,NE,55,3.0,4.0,59,0.00,,,0.02,Wunderground v.1.15,2013-06-18 17:39:00,
2013-06-18 13:45:00,68.5,53.1,30.03,NE,41,3.0,4.0,58,0.00,,,0.02,Wunderground v.1.15,2013-06-18 17:45:00,
2013-06-18 13:50:00,68.4,53.5,30.03,SE,131,3.0,4.0,59,0.00,,,0.02,Wunderground v.1.15,2013-06-18 17:50:00,
2013-06-18 13:56:00,68.5,51.2,30.03,SE,141,3.0,5.0,54,0.00,,,0.02,Wunderground v.1.15,2013-06-18 17:56:00,
2013-06-18 14:01:00,68.7,53.3,30.03,SSE,157,3.0,3.0,58,0.00,,,0.02,Wunderground v.1.15,2013-06-18 18:01:00,
2013-06-18 14:08:00,69.2,52.3,30.03,NNE,26,2.0,5.0,55,0.00,,,0.02,Wunderground v.1.15,2013-06-18 18:08:00,
2013-06-18 14:14:00,69.0,52.6,30.03,ENE,75,3.0,3.0,56,0.00,,,0.02,Wunderground v.1.15,2013-06-18 18:14:00,
2013-06-18 14:19:00,69.2,52.8,30.04,NE,44,2.0,6.0,56,0.00,,,0.02,Wunderground v.1.15,2013-06-18 18:19:00,
2013-06-18 14:24:00,69.0,52.2,30.04,NE,53,4.0,9.0,55,0.00,,,0.02,Wunderground v.1.15,2013-06-18 18:24:00,
2013-06-18 14:30:00,68.7,49.8,30.04,ENE,74,5.0,7.0,51,0.00,,,0.02,Wunderground v.1.15,2013-06-18 18:30:00,
2013-06-18 14:36:00,68.7,51.9,30.04,ENE,57,5.0,11.0,55,0.00,,,0.02,Wunderground v.1.15,2013-06-18 18:36:00,
2013-06-18 14:41:00,68.6,52.3,30.04,ENE,59,5.0,5.0,56,0.00,,,0.02,Wunderground v.1.15,2013-06-18 18:41:00,
2013-06-18 14:46:00,68.9,52.1,30.03,ENE,76,4.0,8.0,55,0.00,,,0.02,Wunderground v.1.15,2013-06-18 18:46:00,
2013-06-18 14:51:00,69.2,51.8,30.03,NNE,25,3.0,5.0,54,0.00,,,0.02,Wunderground v.1.15,2013-06-18 18:51:00,
2013-06-18 14:57:00,69.2,50.8,30.03,NE,52,4.0,7.0,52,0.00,,,0.02,Wunderground v.1.15,2013-06-18 18:57:00,
2013-06-18 15:02:00,69.3,51.4,30.03,ENE,69,3.0,4.0,53,0.00,,,0.02,Wunderground v.1.15,2013-06-18 19:02:00,
2013-06-18 15:08:00,69.2,51.3,30.03,NE,55,3.0,11.0,53,0.00,,,0.02,Wunderground v.1.15,2013-06-18 19:08:00,
2013-06-18 15:13:00,69.3,49.9,30.03,ESE,118,3.0,4.0,50,0.00,,,0.02,Wunderground v.1.15,2013-06-18 19:13:00,
2013-06-18 15:18:00,69.5,49.5,30.04,ENE,73,3.0,3.0,49,0.00,,,0.02,Wunderground v.1.15,2013-06-18 19:18:00,
2013-06-18 15:24:00,69.4,49.9,30.04,NNE,25,4.0,7.0,50,0.00,,,0.02,Wunderground v.1.15,2013-06-18 19:24:00,
2013-06-18 15:29:00,69.4,49.9,30.04,ENE,74,4.0,4.0,50,0.00,,,0.02,Wunderground v.1.15,2013-06-18 19:29:00,
2013-06-18 15:35:00,69.8,50.9,30.04,NE,50,2.0,5.0,51,0.00,,,0.02,Wunderground v.1.15,2013-06-18 19:35:00,
2013-06-18 15:41:00,70.1,51.7,30.04,NE,48,2.0,4.0,52,0.00,,,0.02,Wunderground v.1.15,2013-06-18 19:41:00,
2013-06-18 15:46:00,69.9,49.9,30.04,NE,48,4.0,12.0,49,0.00,,,0.02,Wunderground v.1.15,2013-06-18 19:46:00,
2013-06-18 15:52:00,70.0,50.5,30.04,ENE,63,4.0,5.0,50,0.00,,,0.02,Wunderground v.1.15,2013-06-18 19:52:00,
2013-06-18 15:57:00,70.0,50.5,30.04,ESE,123,3.0,5.0,50,0.00,,,0.02,Wunderground v.1.15,2013-06-18 19:57:00,
2013-06-18 16:02:00,70.0,50.5,30.04,ENE,58,3.0,4.0,50,0.00,,,0.02,Wunderground v.1.15,2013-06-18 20:02:00,
2013-06-18 16:08:00,69.6,50.7,30.05,ENE,72,4.0,11.0,51,0.00,,,0.02,Wunderground v.1.15,2013-06-18 20:08:00,
2013-06-18 16:14:00,69.8,50.3,30.05,ENE,61,3.0,10.0,50,0.00,,,0.02,Wunderground v.1.15,2013-06-18 20:14:00,
2013-06-18 16:20:00,70.0,47.7,30.05,East,83,4.0,6.0,45,0.00,,,0.02,Wunderground v.1.15,2013-06-18 20:20:00,
2013-06-18 16:25:00,70.0,49.4,30.04,ENE,78,4.0,6.0,48,0.00,,,0.02,Wunderground v.1.15,2013-06-18 20:25:00,
2013-06-18 16:31:00,69.9,48.2,30.04,SE,134,4.0,7.0,46,0.00,,,0.02,Wunderground v.1.15,2013-06-18 20:31:00,
2013-06-18 16:36:00,69.8,49.8,30.04,NE,38,3.0,7.0,49,0.00,,,0.02,Wunderground v.1.15,2013-06-18 20:36:00,
2013-06-18 16:42:00,70.0,50.0,30.04,NE,34,3.0,10.0,49,0.00,,,0.02,Wunderground v.1.15,2013-06-18 20:42:00,
2013-06-18 16:48:00,70.2,47.9,30.04,East,94,4.0,10.0,45,0.00,,,0.02,Wunderground v.1.15,2013-06-18 20:48:00,
2013-06-18 16:53:00,70.3,47.3,30.04,ESE,116,3.0,5.0,44,0.00,,,0.02,Wunderground v.1.15,2013-06-18 20:53:00,
2013-06-18 16:58:00,70.2,50.1,30.04,ESE,103,2.0,3.0,49,0.00,,,0.02,Wunderground v.1.15,2013-06-18 20:58:00,
2013-06-18 17:04:00,70.1,47.8,30.04,ENE,67,3.0,9.0,45,0.00,,,0.02,Wunderground v.1.15,2013-06-18 21:04:00,
2013-06-18 17:09:00,69.6,47.3,30.04,East,86,5.0,5.0,45,0.00,,,0.02,Wunderground v.1.15,2013-06-18 21:09:00,
2013-06-18 17:14:00,69.6,48.5,30.04,ESE,107,3.0,5.0,47,0.00,,,0.02,Wunderground v.1.15,2013-06-18 21:14:00,
2013-06-18 17:20:00,69.7,48.0,30.04,ENE,76,2.0,2.0,46,0.00,,,0.02,Wunderground v.1.15,2013-06-18 21:20:00,
2013-06-18 17:25:00,70.1,48.9,30.04,SE,139,2.0,6.0,47,0.00,,,0.02,Wunderground v.1.15,2013-06-18 21:25:00,
2013-06-18 17:31:00,70.2,46.6,30.04,ESE,109,2.0,10.0,43,0.00,,,0.02,Wunderground v.1.15,2013-06-18 21:31:00,
2013-06-18 17:36:00,70.4,47.4,30.04,NE,53,2.0,10.0,44,0.00,,,0.02,Wunderground v.1.15,2013-06-18 21:36:00,
2013-06-18 17:42:00,70.3,46.7,30.04,East,96,3.0,4.0,43,0.00,,,0.02,Wunderground v.1.15,2013-06-18 21:42:00,
2013-06-18 17:48:00,70.2,46.6,30.04,ENE,67,3.0,6.0,43,0.00,,,0.02,Wunderground v.1.15,2013-06-18 21:48:00,
2013-06-18 17:54:00,70.1,49.5,30.04,ENE,72,3.0,4.0,48,0.00,,,0.02,Wunderground v.1.15,2013-06-18 21:54:00,
2013-06-18 17:59:00,70.1,46.6,30.04,NE,42,3.0,10.0,43,0.00,,,0.02,Wunderground v.1.15,2013-06-18 21:59:00,
2013-06-18 18:04:00,69.6,47.3,30.04,NE,53,4.0,10.0,45,0.00,,,0.02,Wunderground v.1.15,2013-06-18 22:04:00,
2013-06-18 18:10:00,69.4,45.9,30.04,East,80,3.0,5.0,43,0.00,,,0.02,Wunderground v.1.15,2013-06-18 22:10:00,
2013-06-18 18:15:00,69.4,47.1,30.04,NE,44,3.0,5.0,45,0.00,,,0.02,Wunderground v.1.15,2013-06-18 22:15:00,
2013-06-18 18:20:00,69.5,47.8,30.04,SE,129,2.0,2.0,46,0.00,,,0.02,Wunderground v.1.15,2013-06-18 22:20:00,
2013-06-18 18:25:00,69.5,46.6,30.04,East,89,2.0,3.0,44,0.00,,,0.02,Wunderground v.1.15,2013-06-18 22:25:00,
2013-06-18 18:31:00,69.8,46.3,30.04,ENE,67,1.0,4.0,43,0.00,,,0.02,Wunderground v.1.15,2013-06-18 22:31:00,
2013-06-18 18:37:00,70.0,46.5,30.04,ENE,67,1.0,4.0,43,0.00,,,0.02,Wunderground v.1.15,2013-06-18 22:37:00,
2013-06-18 18:42:00,69.5,46.0,30.04,East,80,2.0,3.0,43,0.00,,,0.02,Wunderground v.1.15,2013-06-18 22:42:00,
2013-06-18 18:48:00,69.4,47.1,30.05,ENE,75,2.0,6.0,45,0.00,,,0.02,Wunderground v.1.15,2013-06-18 22:48:00,
2013-06-18 18:54:00,69.4,46.5,30.05,ESE,115,2.0,4.0,44,0.00,,,0.02,Wunderground v.1.15,2013-06-18 22:54:00,
2013-06-18 18:59:00,68.9,45.5,30.05,East,86,3.0,3.0,43,0.00,,,0.02,Wunderground v.1.15,2013-06-18 22:59:00,
2013-06-18 19:05:00,68.9,44.9,30.05,East,85,2.0,6.0,42,0.00,,,0.02,Wunderground v.1.15,2013-06-18 23:05:00,
2013-06-18 19:10:00,68.9,44.2,30.05,NNE,29,3.0,7.0,41,0.00,,,0.02,Wunderground v.1.15,2013-06-18 23:10:00,
2013-06-18 19:15:00,68.6,45.2,30.06,ESE,102,3.0,7.0,43,0.00,,,0.02,Wunderground v.1.15,2013-06-18 23:15:00,
2013-06-18 19:22:00,68.5,43.9,30.06,NE,46,2.0,11.0,41,0.00,,,0.02,Wunderground v.1.15,2013-06-18 23:22:00,
2013-06-18 19:28:00,68.3,44.3,30.06,ENE,64,2.0,11.0,42,0.00,,,0.02,Wunderground v.1.15,2013-06-18 23:28:00,
2013-06-18 19:34:00,68.1,44.1,30.06,ENE,74,3.0,5.0,42,0.00,,,0.02,Wunderground v.1.15,2013-06-18 23:34:00,
2013-06-18 19:40:00,68.0,44.7,30.06,NE,56,2.0,2.0,43,0.00,,,0.02,Wunderground v.1.15,2013-06-18 23:40:00,
2013-06-18 19:46:00,67.6,44.9,30.07,NE,38,1.0,2.0,44,0.00,,,0.02,Wunderground v.1.15,2013-06-18 23:46:00,
2013-06-18 19:52:00,67.1,43.8,30.07,ENE,58,1.0,4.0,43,0.00,,,0.02,Wunderground v.1.15,2013-06-18 23:52:00,
2013-06-18 19:58:00,66.4,43.8,30.07,NE,56,2.0,4.0,44,0.00,,,0.02,Wunderground v.1.15,2013-06-18 23:58:00,
2013-06-18 20:03:00,65.8,43.3,30.07,ENE,74,2.0,4.0,44,0.00,,,0.02,Wunderground v.1.15,2013-06-19 00:03:00,
2013-06-18 20:09:00,65.4,43.5,30.07,East,79,1.0,3.0,45,0.00,,,0.02,Wunderground v.1.15,2013-06-19 00:09:00,
2013-06-18 20:15:00,65.0,43.7,30.07,ENE,59,1.0,5.0,46,0.00,,,0.02,Wunderground v.1.15,2013-06-19 00:15:00,
2013-06-18 20:20:00,64.6,43.3,30.07,NE,44,1.0,3.0,46,0.00,,,0.02,Wunderground v.1.15,2013-06-19 00:20:00,
2013-06-18 20:26:00,64.4,43.7,30.07,ENE,78,2.0,3.0,47,0.00,,,0.02,Wunderground v.1.15,2013-06-19 00:26:00,
2013-06-18 20:32:00,64.1,44.0,30.07,East,82,1.0,3.0,48,0.00,,,0.02,Wunderground v.1.15,2013-06-19 00:32:00,
2013-06-18 20:38:00,63.8,43.7,30.07,ENE,78,1.0,3.0,48,0.00,,,0.02,Wunderground v.1.15,2013-06-19 00:38:00,
2013-06-18 20:43:00,63.4,44.4,30.07,NE,47,1.0,1.0,50,0.00,,,0.02,Wunderground v.1.15,2013-06-19 00:43:00,
2013-06-18 20:49:00,63.0,44.1,30.07,ENE,63,1.0,1.0,50,0.00,,,0.02,Wunderground v.1.15,2013-06-19 00:49:00,
2013-06-18 20:54:00,62.7,44.3,30.07,NNE,18,1.0,1.0,51,0.00,,,0.02,Wunderground v.1.15,2013-06-19 00:54:00,
2013-06-18 20:59:00,62.4,44.0,30.07,ENE,71,1.0,2.0,51,0.00,,,0.02,Wunderground v.1.15,2013-06-19 00:59:00,
2013-06-18 21:04:00,62.0,43.7,30.07,ENE,64,1.0,4.0,51,0.00,,,0.02,Wunderground v.1.15,2013-06-19 01:04:00,
2013-06-18 21:09:00,61.6,43.8,30.07,NNE,12,1.0,1.0,52,0.00,,,0.02,Wunderground v.1.15,2013-06-19 01:09:00,
2013-06-18 21:15:00,61.3,43.5,30.07,ENE,67,0.0,2.0,52,0.00,,,0.02,Wunderground v.1.15,2013-06-19 01:15:00,
2013-06-18 21:20:00,60.9,43.6,30.07,ENE,67,0.0,0.0,53,0.00,,,0.02,Wunderground v.1.15,2013-06-19 01:20:00,
2013-06-18 21:25:00,60.5,43.8,30.07,ENE,73,0.0,1.0,54,0.00,,,0.02,Wunderground v.1.15,2013-06-19 01:25:00,
2013-06-18 21:31:00,60.2,43.5,30.07,ENE,60,0.0,0.0,54,0.00,,,0.02,Wunderground v.1.15,2013-06-19 01:31:00,
2013-06-18 21:36:00,59.9,43.7,30.07,SE,145,0.0,1.0,55,0.00,,,0.02,Wunderground v.1.15,2013-06-19 01:36:00,
2013-06-18 21:41:00,59.6,43.4,30.07,East,90,0.0,0.0,55,0.00,,,0.02,Wunderground v.1.15,2013-06-19 01:41:00,
2013-06-18 21:46:00,59.2,43.5,30.07,East,95,0.0,1.0,56,0.00,,,0.02,Wunderground v.1.15,2013-06-19 01:46:00,
2013-06-18 21:52:00,59.0,43.8,30.07,East,92,0.0,0.0,57,0.00,,,0.02,Wunderground v.1.15,2013-06-19 01:52:00,
2013-06-18 21:57:00,58.9,43.7,30.08,East,92,0.0,0.0,57,0.00,,,0.02,Wunderground v.1.15,2013-06-19 01:57:00,
2013-06-18 22:02:00,58.4,43.7,30.08,East,91,0.0,0.0,58,0.00,,,0.02,Wunderground v.1.15,2013-06-19 02:02:00,
2013-06-18 22:09:00,58.0,43.7,30.08,East,92,0.0,0.0,59,0.00,,,0.02,Wunderground v.1.15,2013-06-19 02:09:00,
2013-06-18 22:15:00,57.6,43.8,30.09,East,92,0.0,0.0,60,0.00,,,0.02,Wunderground v.1.15,2013-06-19 02:15:00,
2013-06-18 22:20:00,57.2,43.9,30.09,East,92,0.0,0.0,61,0.00,,,0.02,Wunderground v.1.15,2013-06-19 02:20:00,
2013-06-18 22:25:00,56.8,43.9,30.09,East,91,0.0,0.0,62,0.00,,,0.02,Wunderground v.1.15,2013-06-19 02:25:00,
2013-06-18 22:32:00,56.4,44.0,30.10,East,92,0.0,0.0,63,0.00,,,0.02,Wunderground v.1.15,2013-06-19 02:32:00,
2013-06-18 22:37:00,56.0,44.0,30.10,East,92,0.0,0.0,64,0.00,,,0.02,Wunderground v.1.15,2013-06-19 02:37:00,
2013-06-18 22:43:00,55.7,43.7,30.10,East,91,0.0,0.0,64,0.00,,,0.02,Wunderground v.1.15,2013-06-19 02:43:00,
2013-06-18 22:48:00,55.5,43.9,30.10,East,92,0.0,0.0,65,0.00,,,0.02,Wunderground v.1.15,2013-06-19 02:48:00,
2013-06-18 22:53:00,55.3,43.7,30.10,East,92,0.0,0.0,65,0.00,,,0.02,Wunderground v.1.15,2013-06-19 02:53:00,
2013-06-18 22:59:00,55.2,43.2,30.10,East,92,0.0,0.0,64,0.00,,,0.02,Wunderground v.1.15,2013-06-19 02:59:00,
2013-06-18 23:04:00,55.2,43.6,30.10,East,91,0.0,1.0,65,0.00,,,0.02,Wunderground v.1.15,2013-06-19 03:04:00,
2013-06-18 23:10:00,55.1,43.5,30.10,East,91,0.0,0.0,65,0.00,,,0.02,Wunderground v.1.15,2013-06-19 03:10:00,
2013-06-18 23:15:00,55.0,43.4,30.10,East,92,0.0,0.0,65,0.00,,,0.02,Wunderground v.1.15,2013-06-19 03:15:00,
2013-06-18 23:21:00,54.7,43.6,30.09,East,92,0.0,0.0,66,0.00,,,0.02,Wunderground v.1.15,2013-06-19 03:21:00,
2013-06-18 23:26:00,54.5,43.4,30.09,East,92,0.0,0.0,66,0.00,,,0.02,Wunderground v.1.15,2013-06-19 03:26:00,
2013-06-18 23:32:00,54.4,43.3,30.10,East,91,0.0,0.0,66,0.00,,,0.02,Wunderground v.1.15,2013-06-19 03:32:00,
2013-06-18 23:38:00,54.2,43.5,30.10,East,92,0.0,0.0,67,0.00,,,0.02,Wunderground v.1.15,2013-06-19 03:38:00,
2013-06-18 23:43:00,54.1,43.8,30.10,East,91,0.0,0.0,68,0.00,,,0.02,Wunderground v.1.15,2013-06-19 03:43:00,
2013-06-18 23:48:00,53.9,43.6,30.10,East,91,0.0,0.0,68,0.00,,,0.02,Wunderground v.1.15,2013-06-19 03:48:00,
2013-06-18 23:53:00,53.7,43.8,30.10,East,92,0.0,0.0,69,0.00,,,0.02,Wunderground v.1.15,2013-06-19 03:53:00,
2013-06-18 23:59:00,53.4,43.5,30.10,East,92,0.0,0.0,69,0.00,,,0.02,Wunderground v.1.15,2013-06-19 03:59:00,